Queen Victoria — ZCEF3 — position and weather

sailwx.info

Track history (hours):
 
Tides and Currents Weather Stations Pressure Air Temp Water Temp Dewpoint Dewpoint Depression Visibility Wind Speed Wind Dir Waves Ship Positions

Queen Victoria

Last reported at 2020-Jan-25 03:14 UTC. Time now 2020-Jan-25 04:27 UTC.
Position N 18°10' W 064°50'.

Length 294 m; draft 8 m.

Type: Ship. MMSI: 310624000.

Date/timePositionNaut miles runAvg speedWind from/ knotsBaromVisibWave heightAir tempDewpointWater temp
2020-Jan-25 03:14N 18°10' W 064°50'3817.1
2020-Jan-25 01:00N 18°28' W 065°25'918.6
2020-Jan-25 00:30N 18°29' W 065°35'3217.4
2020-Jan-24 22:41N 18°30' W 066°08'2 1.0
2020-Jan-24 20:25N 18°28' W 066°07'0 0.0
2020-Jan-24 19:58N 18°28' W 066°07'0 0.0
2020-Jan-24 19:28N 18°28' W 066°07'0 0.0
2020-Jan-24 15:58N 18°28' W 066°07'0 0.0
2020-Jan-24 14:58N 18°28' W 066°07'0 0.0
2020-Jan-24 13:58N 18°28' W 066°07'0 0.0
2020-Jan-24 11:58N 18°28' W 066°07'0 0.1
2020-Jan-24 11:00N 18°28' W 066°07'3 6.2
2020-Jan-24 10:31N 18°31' W 066°08'714.1
2020-Jan-24 10:00N 18°36' W 066°12'  
2020-Jan-22 03:32N 25°20' W 079°49'116.7
2020-Jan-22 03:28N 25°21' W 079°49'4713.5
2020-Jan-22 00:00N 26°06' W 080°06'1 0.4
2020-Jan-21 20:30N 26°06' W 080°07'0 0.0
2020-Jan-21 13:00N 26°06' W 080°07'0 0.0
2020-Jan-21 11:30N 26°06' W 080°07'2 1.6
2020-Jan-21 10:30N 26°06' W 080°06'4715.5
2020-Jan-21 07:30N 26°51' W 079°56'918.2
2020-Jan-21 07:00N 27°00' W 079°56'8218.8
2020-Jan-21 02:39N 28°18' W 080°26'12 9.7
2020-Jan-21 01:24N 28°25' W 080°38'0 0.1
2020-Jan-21 00:58N 28°25' W 080°38'0 0.0
2020-Jan-20 20:52N 28°25' W 080°38'0 0.0
2020-Jan-20 18:22N 28°25' W 080°38'0 0.0
2020-Jan-20 16:57N 28°25' W 080°38'50118.6
2020-Jan-19 14:00N 30°42' W 071°24'   210 / 331023.310.8 21.016.922.0
2020-Jan-17 03:00N 33°42' W 059°48'   230 / 361007.3 20.516.421.0
Track history (hours):
 
Tides and Currents Weather Stations Pressure Air Temp Water Temp Dewpoint Dewpoint Depression Visibility Wind Speed Wind Dir Waves Ship Positions

Queen Victoria

Last reported at 2020-Jan-25 03:14 UTC. Time now 2020-Jan-25 04:27 UTC.
Position N 18°10' W 064°50'.

Length 294 m; draft 8 m.

Type: Ship. MMSI: 310624000.

Date/timePositionNaut miles runAvg speedWind from/ knotsBaromVisibWave heightAir tempDewpointWater temp
2020-Jan-25 03:14N 18°10' W 064°50'3817.1
2020-Jan-25 01:00N 18°28' W 065°25'918.6
2020-Jan-25 00:30N 18°29' W 065°35'3217.4
2020-Jan-24 22:41N 18°30' W 066°08'2 1.0
2020-Jan-24 20:25N 18°28' W 066°07'0 0.0
2020-Jan-24 19:58N 18°28' W 066°07'0 0.0
2020-Jan-24 19:28N 18°28' W 066°07'0 0.0
2020-Jan-24 15:58N 18°28' W 066°07'0 0.0
2020-Jan-24 14:58N 18°28' W 066°07'0 0.0
2020-Jan-24 13:58N 18°28' W 066°07'0 0.0
2020-Jan-24 11:58N 18°28' W 066°07'0 0.1
2020-Jan-24 11:00N 18°28' W 066°07'3 6.2
2020-Jan-24 10:31N 18°31' W 066°08'714.1
2020-Jan-24 10:00N 18°36' W 066°12'  
2020-Jan-22 03:32N 25°20' W 079°49'116.7
2020-Jan-22 03:28N 25°21' W 079°49'4713.5
2020-Jan-22 00:00N 26°06' W 080°06'1 0.4
2020-Jan-21 20:30N 26°06' W 080°07'0 0.0
2020-Jan-21 13:00N 26°06' W 080°07'0 0.0
2020-Jan-21 11:30N 26°06' W 080°07'2 1.6
2020-Jan-21 10:30N 26°06' W 080°06'4715.5
2020-Jan-21 07:30N 26°51' W 079°56'918.2
2020-Jan-21 07:00N 27°00' W 079°56'8218.8
2020-Jan-21 02:39N 28°18' W 080°26'12 9.7
2020-Jan-21 01:24N 28°25' W 080°38'0 0.1
2020-Jan-21 00:58N 28°25' W 080°38'0 0.0
2020-Jan-20 20:52N 28°25' W 080°38'0 0.0
2020-Jan-20 18:22N 28°25' W 080°38'0 0.0
2020-Jan-20 16:57N 28°25' W 080°38'50118.6
2020-Jan-19 14:00N 30°42' W 071°24'   210 / 331023.310.8 21.016.922.0
2020-Jan-17 03:00N 33°42' W 059°48'   230 / 361007.3 20.516.421.0

Dump ship's entire track history